Time;durP1;ratioP1;P1;durP2;ratioP2;P2;SDS_P1;SDS_P2;PMS_P1;PMS_P2;Temp;Humidity;BMP_temperature;BMP_pressure;BME280_temperature;BME280_humidity;BME280_pressure;Samples;Min_cycle;Max_cycle;Signal;HPM_P1;HPM_P2
2021/03/26 00:01:43;;;;;;;20.20;12.67;;;;;;;5.31;71.31;96717.13;5001709;28;20014;-77
2021/03/26 00:04:10;;;;;;;20.57;12.87;;;;;;;5.38;71.13;96721.75;4995077;28;20105;-77
2021/03/26 00:06:39;;;;;;;22.00;13.40;;;;;;;5.34;71.79;96724.72;4996326;28;20492;-77
2021/03/26 00:09:07;;;;;;;21.40;12.80;;;;;;;5.40;72.50;96714.66;4999298;28;20040;-77
2021/03/26 00:11:33;;;;;;;22.93;13.00;;;;;;;5.36;72.06;96713.19;4991320;28;20034;-77
2021/03/26 00:14:00;;;;;;;21.70;12.50;;;;;;;5.32;72.31;96722.19;4994802;28;20057;-77
2021/03/26 00:16:26;;;;;;;22.77;14.73;;;;;;;5.28;71.32;96720.78;4990735;28;20022;-77
2021/03/26 00:18:53;;;;;;;21.20;13.07;;;;;;;5.28;71.77;96715.56;4973902;28;20023;-77
2021/03/26 00:21:20;;;;;;;21.97;12.17;;;;;;;5.25;71.98;96707.97;5006072;28;20025;-77
2021/03/26 00:23:46;;;;;;;22.00;12.20;;;;;;;5.16;72.71;96711.25;4982126;28;20030;-78
2021/03/26 00:26:12;;;;;;;17.80;11.37;;;;;;;5.21;72.54;96711.75;5005213;28;20034;-77
2021/03/26 00:28:38;;;;;;;20.90;10.63;;;;;;;5.20;72.07;96716.13;4991384;28;20470;-77
2021/03/26 00:31:04;;;;;;;18.70;12.17;;;;;;;5.14;71.54;96708.78;4989379;28;20105;-77
2021/03/26 00:33:30;;;;;;;22.57;12.27;;;;;;;5.12;72.52;96704.59;5071170;28;20043;-77
2021/03/26 00:35:56;;;;;;;16.07;10.13;;;;;;;5.15;72.61;96709.59;4994201;28;20130;-77
2021/03/26 00:38:24;;;;;;;21.93;11.63;;;;;;;5.25;72.15;96709.75;4985376;28;20034;-77
2021/03/26 00:40:50;;;;;;;16.17;10.33;;;;;;;5.06;72.53;96700.66;5001403;28;20993;-77
2021/03/26 00:43:16;;;;;;;21.93;11.13;;;;;;;5.16;72.55;96706.88;5063950;28;20034;-77
2021/03/26 00:45:42;;;;;;;18.30;10.37;;;;;;;5.25;72.23;96701.91;4989242;28;20075;-77
2021/03/26 00:48:10;;;;;;;20.87;10.53;;;;;;;5.36;71.92;96689.72;4986837;28;20461;-77
2021/03/26 00:50:42;;;;;;;21.77;11.80;;;;;;;5.34;72.33;96689.03;5007001;28;20037;-77
2021/03/26 00:53:18;;;;;;;17.38;11.20;;;;;;;5.19;72.66;96695.38;4970566;28;20035;-77
2021/03/26 00:55:44;;;;;;;18.60;11.37;;;;;;;5.17;72.63;96702.50;4994187;28;20033;-77
2021/03/26 00:58:12;;;;;;;19.67;12.00;;;;;;;4.92;72.24;96699.09;4993885;28;20048;-77
2021/03/26 01:00:39;;;;;;;33.07;19.10;;;;;;;4.46;74.95;96702.44;5090233;27;20045;-77
2021/03/26 01:03:10;;;;;;;33.40;19.23;;;;;;;4.41;75.02;96708.91;5071930;28;20048;-77
2021/03/26 01:05:40;;;;;;;27.40;16.03;;;;;;;4.47;75.07;96700.66;4989106;28;20026;-77
2021/03/26 01:08:06;;;;;;;27.70;16.40;;;;;;;4.50;74.46;96697.84;4993139;28;21077;-77
2021/03/26 01:10:41;;;;;;;25.83;13.57;;;;;;;4.49;74.84;96702.22;4997773;28;20027;-77
2021/03/26 01:13:09;;;;;;;22.03;12.47;;;;;;;4.47;74.86;96709.31;4987783;28;20041;-77
2021/03/26 01:15:35;;;;;;;21.17;12.00;;;;;;;4.41;75.18;96709.75;4975563;28;20540;-77
2021/03/26 01:18:04;;;;;;;22.50;11.90;;;;;;;4.36;74.88;96706.66;4988438;28;20452;-77
2021/03/26 01:20:34;;;;;;;18.30;12.43;;;;;;;4.36;75.10;96706.66;5077170;28;20641;-76
2021/03/26 01:23:00;;;;;;;18.90;12.57;;;;;;;4.38;74.69;96709.13;5005365;28;20456;-77
2021/03/26 01:25:32;;;;;;;17.07;11.53;;;;;;;4.42;73.91;96702.75;4989887;28;20469;-77
2021/03/26 01:28:25;;;;;;;17.90;12.00;;;;;;;4.42;74.59;96703.59;4986954;28;20049;-78
2021/03/26 01:31:12;;;;;;;21.03;11.93;;;;;;;4.42;74.76;96700.97;5077738;27;20484;-77
2021/03/26 01:33:38;;;;;;;20.07;11.57;;;;;;;4.40;75.03;96695.06;4997396;28;20461;-77
2021/03/26 01:36:06;;;;;;;21.27;11.83;;;;;;;4.40;74.33;96700.28;4976830;28;21195;-77
2021/03/26 01:38:32;;;;;;;17.57;11.83;;;;;;;4.41;74.78;96699.31;4985440;28;20095;-77
2021/03/26 01:41:05;;;;;;;19.23;11.80;;;;;;;4.37;74.72;96700.50;4981666;28;20525;-77
2021/03/26 01:43:34;;;;;;;19.37;11.57;;;;;;;4.18;75.58;96700.13;4982538;28;20034;-77
2021/03/26 01:46:02;;;;;;;21.50;11.27;;;;;;;4.19;75.75;96692.22;4994378;28;20475;-77
2021/03/26 01:48:32;;;;;;;22.37;12.83;;;;;;;4.03;77.07;96690.81;4990058;28;20507;-77
2021/03/26 01:51:00;;;;;;;20.63;11.43;;;;;;;4.09;76.98;96688.63;5010197;28;21953;-77
2021/03/26 01:53:27;;;;;;;25.93;12.67;;;;;;;4.18;76.56;96684.50;4991115;28;20525;-77
2021/03/26 01:55:56;;;;;;;24.73;12.40;;;;;;;4.20;76.52;96680.03;4993600;28;20487;-77
2021/03/26 01:58:25;;;;;;;23.37;13.03;;;;;;;4.15;76.47;96682.13;4978657;28;20875;-77
2021/03/26 02:00:55;;;;;;;19.63;12.17;;;;;;;4.10;76.73;96682.47;4987180;28;20465;-76
2021/03/26 02:03:29;;;;;;;19.70;11.50;;;;;;;4.07;76.36;96684.44;4985536;28;20489;-78
2021/03/26 02:05:57;;;;;;;20.73;11.60;;;;;;;4.10;76.28;96685.06;5003581;28;20513;-77
2021/03/26 02:08:29;;;;;;;18.27;12.20;;;;;;;4.15;76.25;96682.13;5016798;28;20029;-77
2021/03/26 02:11:04;;;;;;;18.93;11.90;;;;;;;4.11;76.10;96689.31;4993119;28;20513;-77
2021/03/26 02:13:36;;;;;;;19.43;12.40;;;;;;;4.08;77.47;96688.69;4984744;28;20493;-78
2021/03/26 02:16:15;;;;;;;21.33;13.67;;;;;;;4.06;77.33;96685.38;4979896;28;20476;-78
2021/03/26 02:18:59;;;;;;;23.30;12.57;;;;;;;4.04;77.04;96682.88;4993418;28;20464;-78
2021/03/26 02:21:33;;;;;;;19.27;12.53;;;;;;;4.07;77.52;96679.25;4987608;28;20489;-77
2021/03/26 02:24:06;;;;;;;23.48;13.25;;;;;;;4.06;77.10;96682.75;4990442;28;20475;-77
2021/03/26 02:26:39;;;;;;;33.27;17.43;;;;;;;4.10;76.95;96687.66;4990685;28;20091;-78
2021/03/26 02:29:22;;;;;;;38.80;19.05;;;;;;;4.15;77.26;96682.13;4991583;28;20532;-77
2021/03/26 02:32:23;;;;;;;36.75;17.50;;;;;;;4.18;76.46;96687.94;5001311;28;20102;-78
2021/03/26 02:35:16;;;;;;;26.10;15.37;;;;;;;4.16;77.37;96684.63;4993523;28;20045;-77
2021/03/26 02:37:52;;;;;;;25.25;13.65;;;;;;;4.15;77.33;96697.75;4987819;28;20484;-77
2021/03/26 02:40:29;;;;;;;33.03;17.30;;;;;;;4.11;77.11;96696.31;4985819;28;20049;-77
2021/03/26 02:43:36;;;;;;;29.73;16.97;;;;;;;4.11;76.88;96691.91;4984082;28;20509;-77
2021/03/26 02:46:16;;;;;;;27.03;15.23;;;;;;;4.26;76.17;96692.63;4990683;28;21677;-77
2021/03/26 02:48:57;;;;;;;29.63;16.57;;;;;;;4.28;75.98;96698.53;5000447;28;20480;-77
2021/03/26 02:51:28;;;;;;;29.17;15.40;;;;;;;4.22;76.15;96691.16;4998355;28;20485;-78
2021/03/26 02:54:01;;;;;;;;;;;;;;;4.13;76.84;96697.03;4998891;28;20441;-77
2021/03/26 02:56:34;;;;;;;32.27;16.33;;;;;;;4.05;77.69;96694.13;5000380;28;20083;-78
2021/03/26 02:59:28;;;;;;;24.37;13.93;;;;;;;4.04;77.35;96695.06;5091624;27;20565;-76
2021/03/26 03:01:59;;;;;;;25.63;14.63;;;;;;;4.03;78.35;96694.25;4986591;28;20566;-78
2021/03/26 03:04:42;;;;;;;21.70;13.90;;;;;;;3.99;78.19;96687.56;4982267;28;20679;-77
2021/03/26 03:07:29;;;;;;;20.97;13.23;;;;;;;4.06;78.70;96693.16;4986710;28;20468;-78
2021/03/26 03:10:38;;;;;;;19.30;13.23;;;;;;;4.08;78.72;96689.53;5016497;28;20512;-77
2021/03/26 03:13:16;;;;;;;21.53;12.63;;;;;;;4.11;78.79;96685.88;4984869;28;20482;-77
2021/03/26 03:16:01;;;;;;;24.20;12.53;;;;;;;4.05;79.36;96686.31;5064988;28;20476;-77
2021/03/26 03:18:37;;;;;;;22.73;12.80;;;;;;;4.12;78.63;96685.75;5069017;27;20507;-77
2021/03/26 03:21:25;;;;;;;23.00;13.10;;;;;;;4.08;79.26;96681.72;5065590;28;20530;-77
2021/03/26 03:24:02;;;;;;;20.97;12.30;;;;;;;4.13;78.51;96689.22;5000211;28;20446;-77
2021/03/26 03:27:03;;;;;;;24.73;13.07;;;;;;;4.08;78.48;96683.50;4988512;28;20484;-76
2021/03/26 03:29:58;;;;;;;21.33;12.93;;;;;;;3.97;78.95;96679.88;4990108;28;20386;-78
2021/03/26 03:32:36;;;;;;;;;;;;;;;3.96;79.92;96678.22;4966238;28;21036;-77
2021/03/26 03:35:35;;;;;;;21.23;13.37;;;;;;;3.96;79.63;96686.03;4997298;28;19965;-76
2021/03/26 03:38:29;;;;;;;21.17;12.97;;;;;;;3.93;79.89;96678.44;4975506;28;20445;-77
2021/03/26 03:41:14;;;;;;;19.50;12.03;;;;;;;3.95;79.96;96663.53;4981859;28;20489;-77
2021/03/26 03:44:19;;;;;;;21.07;12.40;;;;;;;3.97;79.35;96663.44;4989688;28;20551;-77
2021/03/26 03:47:28;;;;;;;25.33;13.40;;;;;;;3.96;80.34;96656.59;4985413;28;20456;-76
2021/03/26 03:50:20;;;;;;;20.63;13.37;;;;;;;4.05;79.66;96658.50;4972242;28;20534;-76
2021/03/26 03:53:08;;;;;;;20.67;12.33;;;;;;;4.09;80.26;96659.13;4986284;28;20485;-76
2021/03/26 03:55:38;;;;;;;25.90;12.53;;;;;;;4.04;79.40;96669.88;4976594;28;20468;-77
2021/03/26 03:58:06;;;;;;;26.43;15.03;;;;;;;4.12;79.81;96666.72;4974055;28;20557;-77
2021/03/26 04:01:04;;;;;;;25.63;15.13;;;;;;;4.16;79.25;96669.00;4989253;28;20486;-76
2021/03/26 04:04:04;;;;;;;25.83;14.73;;;;;;;4.23;78.52;96666.81;4973415;28;20152;-77
2021/03/26 04:06:43;;;;;;;24.73;13.63;;;;;;;4.29;79.57;96670.72;5065324;28;20532;-77
2021/03/26 04:09:12;;;;;;;21.63;13.20;;;;;;;4.30;78.41;96675.84;5067665;28;20493;-77
2021/03/26 04:11:46;;;;;;;21.93;13.17;;;;;;;4.36;78.11;96674.53;4990235;28;20511;-77
2021/03/26 04:14:46;;;;;;;25.88;13.50;;;;;;;4.34;78.53;96676.44;4988077;28;20495;-77
2021/03/26 04:17:30;;;;;;;23.00;12.90;;;;;;;4.36;78.07;96680.63;4986838;28;20062;-77
2021/03/26 04:20:20;;;;;;;19.30;12.13;;;;;;;4.36;78.40;96683.22;4991897;28;20506;-77
2021/03/26 04:22:52;;;;;;;22.43;13.90;;;;;;;4.37;78.36;96676.22;4999688;28;20469;-77
2021/03/26 04:25:33;;;;;;;21.77;13.90;;;;;;;4.23;78.79;96677.22;4987636;28;20477;-77
2021/03/26 04:28:40;;;;;;;25.00;13.93;;;;;;;4.17;79.39;96682.84;4925780;28;20160;-78
2021/03/26 04:31:34;;;;;;;25.35;13.90;;;;;;;4.24;78.81;96677.09;4980310;28;20477;-77
2021/03/26 04:34:10;;;;;;;23.10;15.00;;;;;;;4.22;79.02;96678.13;4997681;28;20036;-77
2021/03/26 04:37:09;;;;;;;25.63;13.70;;;;;;;4.19;79.16;96676.59;4994978;28;20479;-77
2021/03/26 04:39:49;;;;;;;21.63;13.60;;;;;;;4.13;79.13;96668.41;4988749;28;20118;-76
2021/03/26 04:42:35;;;;;;;;;;;;;;;3.99;80.18;96675.41;4976394;28;20485;-77
2021/03/26 04:45:43;;;;;;;21.17;13.60;;;;;;;3.97;80.50;96674.69;4993633;28;19957;-77
2021/03/26 04:48:57;;;;;;;24.30;14.33;;;;;;;4.04;80.48;96672.47;5016708;28;20488;-78
2021/03/26 04:51:46;;;;;;;20.80;12.80;;;;;;;4.14;80.30;96670.88;4981271;28;20485;-77
2021/03/26 04:54:45;;;;;;;21.20;12.50;;;;;;;4.12;79.91;96667.53;4989464;28;20557;-76
2021/03/26 04:57:34;;;;;;;23.30;12.43;;;;;;;4.10;80.21;96672.03;4982748;28;21615;-76
2021/03/26 05:00:15;;;;;;;20.20;12.80;;;;;;;4.12;80.29;96659.75;4980629;28;20457;-77
2021/03/26 05:02:52;;;;;;;19.47;11.80;;;;;;;4.07;80.50;96659.25;5091724;27;20470;-76
2021/03/26 05:05:20;;;;;;;20.03;11.83;;;;;;;4.09;80.27;96656.53;5000002;28;20537;-77
2021/03/26 05:08:04;;;;;;;19.37;10.77;;;;;;;4.03;80.60;96656.97;4997562;28;20528;-77
2021/03/26 05:10:33;;;;;;;19.07;11.10;;;;;;;4.06;80.49;96661.94;4987865;28;20508;-76
2021/03/26 05:13:29;;;;;;;22.53;11.90;;;;;;;4.06;80.31;96667.16;5004430;28;20505;-77
2021/03/26 05:16:15;;;;;;;22.33;13.33;;;;;;;3.99;80.36;96654.59;4979065;28;20465;-77
2021/03/26 05:19:19;;;;;;;22.33;12.43;;;;;;;4.02;80.58;96658.72;4984455;28;20461;-78
2021/03/26 05:21:50;;;;;;;35.57;18.60;;;;;;;4.01;80.79;96665.72;5006339;28;20958;-76
2021/03/26 05:24:55;;;;;;;83.53;39.07;;;;;;;4.03;80.63;96660.41;4976820;28;20461;-77
2021/03/26 05:27:50;;;;;;;44.77;23.30;;;;;;;4.16;79.96;96657.78;4970817;28;20838;-77
2021/03/26 05:30:26;;;;;;;61.63;26.30;;;;;;;4.28;79.21;96659.47;4992310;28;21016;-77
2021/03/26 05:33:00;;;;;;;40.67;18.80;;;;;;;4.27;79.99;96660.44;5007584;28;21060;-77
2021/03/26 05:35:46;;;;;;;35.90;15.30;;;;;;;4.26;79.90;96658.78;4981678;28;21026;-77
2021/03/26 05:38:41;;;;;;;20.80;11.60;;;;;;;4.27;79.60;96662.22;4997320;28;21052;-77
2021/03/26 05:42:15;;;;;;;19.27;10.02;;;;;;;4.31;79.41;96667.06;4981475;28;20546;-78
2021/03/26 05:45:25;;;;;;;21.40;12.97;;;;;;;4.46;79.08;96662.53;4985926;28;20081;-77
2021/03/26 05:49:04;;;;;;;20.27;11.47;;;;;;;4.65;78.29;96659.44;4979637;28;20454;-77
2021/03/26 05:51:58;;;;;;;14.02;8.23;;;;;;;4.64;77.76;96656.00;4999090;28;20975;-78
2021/03/26 05:54:55;;;;;;;22.30;12.50;;;;;;;4.89;77.84;96657.59;4985959;28;20038;-78
2021/03/26 05:57:42;;;;;;;25.23;14.90;;;;;;;5.03;77.03;96653.16;5008900;28;20028;-76
2021/03/26 06:00:46;;;;;;;24.73;11.07;;;;;;;5.10;75.94;96654.38;4988982;28;20674;-78
2021/03/26 06:03:57;;;;;;;19.77;10.83;;;;;;;5.36;74.48;96655.81;4984745;28;20038;-78
2021/03/26 06:06:41;;;;;;;23.50;11.80;;;;;;;5.17;75.73;96658.19;4992188;28;20117;-78
2021/03/26 06:09:52;;;;;;;17.90;11.07;;;;;;;5.03;76.27;96667.03;4994337;28;20519;-78
2021/03/26 06:12:54;;;;;;;19.77;12.37;;;;;;;5.24;75.08;96661.97;5006001;28;20498;-79
2021/03/26 06:16:11;;;;;;;24.25;11.43;;;;;;;5.84;72.84;96660.84;5051185;28;20484;-77
2021/03/26 06:19:44;;;;;;;16.93;11.73;;;;;;;5.94;73.19;96654.94;5028949;28;20074;-78
2021/03/26 06:23:07;;;;;;;17.83;10.77;;;;;;;6.37;71.87;96658.41;5011967;28;20061;-77
2021/03/26 06:26:31;;;;;;;16.83;10.30;;;;;;;6.24;71.23;96649.91;5006367;28;20782;-76
2021/03/26 06:29:22;;;;;;;23.97;11.40;;;;;;;5.72;73.73;96653.94;5029633;28;20023;-77
2021/03/26 06:32:23;;;;;;;26.67;15.07;;;;;;;5.95;73.61;96651.38;5005876;28;20030;-76
2021/03/26 06:35:09;;;;;;;20.00;13.60;;;;;;;6.76;70.60;96648.28;5004921;28;20042;-78
2021/03/26 06:38:09;;;;;;;19.93;11.87;;;;;;;7.53;67.52;96644.53;5007502;28;20030;-79
2021/03/26 06:40:46;;;;;;;22.27;12.70;;;;;;;8.08;65.83;96638.94;5107972;27;20090;-77
2021/03/26 06:43:27;;;;;;;25.43;13.63;;;;;;;8.51;63.46;96643.88;5004141;28;20038;-77
2021/03/26 06:46:19;;;;;;;19.70;11.40;;;;;;;8.70;63.52;96638.66;5026671;28;20377;-78
2021/03/26 06:49:17;;;;;;;22.10;12.93;;;;;;;8.39;65.30;96640.56;5011284;28;20075;-78
2021/03/26 06:52:03;;;;;;;19.33;11.20;;;;;;;8.73;63.75;96627.09;5010547;28;20040;-78
2021/03/26 06:54:56;;;;;;;22.80;11.73;;;;;;;9.14;62.07;96631.19;5010320;28;20038;-78
2021/03/26 06:57:47;;;;;;;24.60;11.73;;;;;;;9.59;60.66;96620.03;5078886;28;20117;-78
2021/03/26 07:00:21;;;;;;;18.10;11.87;;;;;;;10.39;58.06;96615.09;5085233;28;20095;-78
2021/03/26 07:02:53;;;;;;;20.63;12.30;;;;;;;10.35;59.17;96609.28;5010737;28;20022;-78
2021/03/26 07:05:53;;;;;;;21.10;12.13;;;;;;;10.14;59.83;96614.78;4999782;28;20034;-78
2021/03/26 07:08:40;;;;;;;16.97;11.00;;;;;;;10.80;58.20;96615.50;4999807;28;20036;-79
2021/03/26 07:11:41;;;;;;;18.77;11.70;;;;;;;10.85;57.87;96607.97;5008273;28;20074;-78
2021/03/26 07:14:29;;;;;;;23.00;12.37;;;;;;;11.41;54.99;96613.81;5024022;28;20040;-78
2021/03/26 07:17:24;;;;;;;25.40;13.07;;;;;;;12.01;53.66;96609.38;5014304;28;20074;-78
2021/03/26 07:20:08;;;;;;;18.50;10.87;;;;;;;11.82;54.01;96612.22;5010395;28;20029;-79
2021/03/26 07:23:02;;;;;;;17.20;11.37;;;;;;;12.05;54.45;96609.06;5103357;27;20053;-78
2021/03/26 07:25:53;;;;;;;17.20;11.40;;;;;;;11.34;55.62;96624.13;5001983;28;20466;-78
2021/03/26 07:28:33;;;;;;;21.17;12.57;;;;;;;11.63;55.81;96620.34;4998244;28;20060;-78
2021/03/26 07:31:14;;;;;;;19.80;13.23;;;;;;;11.82;55.45;96620.13;4997006;28;20066;-79
2021/03/26 07:34:19;;;;;;;20.43;11.53;;;;;;;13.25;52.45;96615.72;5000277;28;20091;-78
2021/03/26 07:37:05;;;;;;;20.10;12.30;;;;;;;13.10;51.97;96623.44;5005831;28;20054;-80
2021/03/26 07:39:50;;;;;;;20.00;12.47;;;;;;;12.79;51.10;96620.63;5018432;28;20034;-79
2021/03/26 07:42:23;;;;;;;20.63;10.90;;;;;;;13.49;48.03;96617.50;5013994;28;20137;-79
2021/03/26 07:45:07;;;;;;;19.25;11.25;;;;;;;13.32;48.92;96617.50;5003982;28;20030;-79
2021/03/26 07:47:42;;;;;;;18.07;11.07;;;;;;;14.05;46.89;96613.84;5005472;28;20060;-79
2021/03/26 07:50:17;;;;;;;19.63;11.37;;;;;;;13.76;50.02;96617.09;5079325;28;20113;-79
2021/03/26 07:52:52;;;;;;;17.03;11.07;;;;;;;14.47;47.92;96611.84;5009922;28;20055;-80
2021/03/26 07:55:27;;;;;;;20.27;11.90;;;;;;;14.35;48.95;96614.88;5016440;28;20061;-79
2021/03/26 07:58:11;;;;;;;22.33;11.53;;;;;;;14.97;47.10;96607.88;4989337;28;20061;-80
2021/03/26 08:00:51;;;;;;;16.77;11.07;;;;;;;14.83;46.95;96607.66;5009116;28;20034;-80
2021/03/26 08:03:34;;;;;;;15.03;10.17;;;;;;;15.67;44.82;96612.91;5090106;28;20053;-80
2021/03/26 08:06:29;;;;;;;15.20;10.67;;;;;;;15.89;44.40;96615.66;5013058;28;20086;-80
2021/03/26 08:09:31;;;;;;;15.80;10.53;;;;;;;16.23;43.11;96613.28;4987875;28;20087;-80
2021/03/26 08:12:19;;;;;;;15.03;10.23;;;;;;;16.45;42.32;96618.63;5016132;28;20041;-80
2021/03/26 08:14:59;;;;;;;16.60;10.50;;;;;;;15.02;44.82;96610.81;5022041;28;20038;-81
2021/03/26 08:17:36;;;;;;;18.97;10.90;;;;;;;16.31;42.49;96608.88;5000308;28;20082;-80
2021/03/26 08:20:14;;;;;;;15.33;9.43;;;;;;;16.47;41.49;96611.31;4999926;28;20037;-80
2021/03/26 08:22:48;;;;;;;15.90;9.97;;;;;;;16.85;40.95;96601.31;5014203;28;20049;-80
2021/03/26 08:25:48;;;;;;;15.90;10.13;;;;;;;17.01;39.87;96607.41;5004686;28;20030;-80
2021/03/26 08:28:32;;;;;;;15.20;9.47;;;;;;;16.59;41.40;96612.44;5011898;28;20114;-79
2021/03/26 08:31:24;;;;;;;14.93;10.10;;;;;;;17.12;40.31;96605.03;4991222;28;20093;-79
2021/03/26 08:34:17;;;;;;;15.60;9.77;;;;;;;17.30;40.88;96601.09;5001096;28;20038;-80
2021/03/26 08:36:54;;;;;;;16.63;10.38;;;;;;;17.22;40.20;96609.22;5019707;28;20097;-81
2021/03/26 08:39:40;;;;;;;14.50;9.88;;;;;;;17.67;39.20;96607.91;5005641;28;20061;-80
2021/03/26 08:42:38;;;;;;;17.00;10.25;;;;;;;17.48;38.75;96603.28;5003902;28;20033;-80
2021/03/26 08:45:12;;;;;;;15.25;9.50;;;;;;;18.33;36.08;96599.50;4995536;28;20050;-80
2021/03/26 08:47:45;;;;;;;14.77;10.07;;;;;;;17.40;37.40;96609.53;5089328;28;20065;-80
2021/03/26 08:50:29;;;;;;;13.63;8.40;;;;;;;18.09;36.26;96601.63;5005593;28;20030;-79
2021/03/26 08:53:16;;;;;;;16.42;9.25;;;;;;;19.12;34.29;96600.75;4999724;28;20034;-80
2021/03/26 08:56:06;;;;;;;14.00;8.52;;;;;;;19.17;33.67;96598.28;5001948;28;20044;-80
2021/03/26 08:58:45;;;;;;;14.25;8.75;;;;;;;19.52;33.63;96601.56;4985143;28;20030;-80
2021/03/26 09:01:32;;;;;;;12.43;8.98;;;;;;;18.23;35.20;96602.50;4998610;28;20041;-80
2021/03/26 09:04:19;;;;;;;13.38;8.43;;;;;;;19.16;34.92;96602.78;5107798;27;20039;-79
2021/03/26 09:07:11;;;;;;;12.93;9.07;;;;;;;18.36;35.29;96607.91;5002968;28;20034;-79
2021/03/26 09:10:06;;;;;;;15.95;8.95;;;;;;;17.44;37.59;96609.00;4999877;28;20030;-79
2021/03/26 09:13:10;;;;;;;13.90;9.07;;;;;;;18.76;35.12;96593.91;5008030;28;20045;-79
2021/03/26 09:16:01;;;;;;;14.43;9.32;;;;;;;18.75;34.72;96600.28;4992881;28;20050;-80
2021/03/26 09:18:48;;;;;;;16.13;9.07;;;;;;;19.20;33.86;96596.03;4996175;28;20095;-80
2021/03/26 09:21:51;;;;;;;15.35;7.97;;;;;;;19.66;33.50;96589.88;4991100;28;20026;-80
2021/03/26 09:24:26;;;;;;;17.25;9.20;;;;;;;18.70;34.28;96590.19;4996633;28;20038;-80
2021/03/26 09:26:59;;;;;;;17.42;8.70;;;;;;;18.96;33.43;96586.78;5011109;28;20037;-81
2021/03/26 09:29:31;;;;;;;;;;;;;;;17.06;36.95;96600.47;4988364;28;20049;-80
2021/03/26 09:32:21;;;;;;;18.08;9.75;;;;;;;18.67;35.59;96576.44;4992828;28;20594;-80
2021/03/26 09:34:58;;;;;;;16.58;9.43;;;;;;;18.88;33.51;96576.31;5003865;28;20620;-80
2021/03/26 09:37:33;;;;;;;15.60;9.60;;;;;;;18.78;33.97;96574.06;5003282;28;20030;-80
2021/03/26 09:40:02;;;;;;;14.63;9.18;;;;;;;19.27;33.18;96570.16;5020177;28;20142;-80
2021/03/26 09:42:39;;;;;;;16.95;8.60;;;;;;;19.72;32.47;96574.91;4982530;28;20026;-81
2021/03/26 09:45:20;;;;;;;12.15;8.38;;;;;;;19.65;32.11;96566.06;5083386;28;20398;-80
2021/03/26 09:48:01;;;;;;;14.18;8.90;;;;;;;18.66;33.55;96570.28;4999443;28;20038;-81
2021/03/26 09:50:46;;;;;;;11.95;8.20;;;;;;;17.76;35.63;96564.22;4990471;28;20048;-80
2021/03/26 09:53:16;;;;;;;15.25;9.15;;;;;;;19.27;33.51;96558.69;5012130;28;20037;-79
2021/03/26 09:55:44;;;;;;;13.80;8.57;;;;;;;18.99;33.76;96553.56;4995961;28;20061;-80
2021/03/26 09:58:55;;;;;;;14.50;9.07;;;;;;;18.49;33.66;96550.38;5104191;27;20069;-80
2021/03/26 10:01:29;;;;;;;13.43;8.50;;;;;;;19.40;32.63;96544.53;4984022;28;20034;-80
2021/03/26 10:04:07;;;;;;;13.55;8.50;;;;;;;19.29;32.35;96543.31;5015874;28;20026;-80
2021/03/26 10:07:12;;;;;;;13.45;8.80;;;;;;;19.49;32.47;96536.09;5002224;28;20093;-81
2021/03/26 10:10:01;;;;;;;12.13;8.65;;;;;;;19.27;32.49;96530.19;4994320;28;20030;-80
2021/03/26 10:12:37;;;;;;;15.07;9.15;;;;;;;19.20;32.91;96523.22;5015873;28;20030;-81
2021/03/26 10:15:19;;;;;;;14.98;9.50;;;;;;;20.02;31.54;96528.00;5020960;28;20049;-81
2021/03/26 10:18:10;;;;;;;15.23;9.68;;;;;;;18.97;34.00;96529.78;4984136;28;20558;-80
2021/03/26 10:20:48;;;;;;;12.85;8.77;;;;;;;19.21;32.64;96531.00;4979442;28;20045;-81
2021/03/26 10:23:30;;;;;;;13.00;8.10;;;;;;;19.43;33.01;96528.13;5070995;28;20030;-81
2021/03/26 10:25:55;;;;;;;15.57;9.55;;;;;;;19.53;33.04;96515.16;5004949;28;20041;-81
2021/03/26 10:28:33;;;;;;;16.27;9.25;;;;;;;19.51;32.55;96512.69;4996073;28;20025;-81
2021/03/26 10:31:06;;;;;;;12.55;8.23;;;;;;;19.99;31.61;96511.59;5001036;28;20045;-81
2021/03/26 10:33:45;;;;;;;14.57;8.70;;;;;;;20.60;30.75;96510.25;4997159;28;20041;-81
2021/03/26 10:36:38;;;;;;;13.13;7.93;;;;;;;20.75;29.97;96509.94;4979575;28;20034;-81
2021/03/26 10:39:31;;;;;;;13.48;9.00;;;;;;;20.37;31.11;96494.75;4969797;28;20566;-81
2021/03/26 10:42:07;;;;;;;12.60;7.83;;;;;;;20.97;29.90;96489.03;4994008;28;20038;-81
2021/03/26 10:44:42;;;;;;;10.82;8.27;;;;;;;20.31;30.54;96487.59;5099439;27;20477;-81
2021/03/26 10:47:30;;;;;;;13.88;8.38;;;;;;;20.00;31.51;96498.00;5018445;28;20407;-81
2021/03/26 10:50:00;;;;;;;14.40;9.82;;;;;;;20.66;30.90;96491.50;5002075;28;20083;-84
2021/03/26 10:52:54;;;;;;;13.77;9.15;;;;;;;21.87;28.83;96476.00;4992103;28;20029;-81
2021/03/26 10:55:22;;;;;;;;;;;;;;;20.41;30.57;96477.25;5007160;28;20050;-81
2021/03/26 10:58:04;;;;;;;13.43;7.95;;;;;;;18.48;33.08;96472.34;5004924;28;19922;-80
2021/03/26 11:00:45;;;;;;;12.57;8.65;;;;;;;20.01;30.67;96470.28;5018182;28;20038;-81
2021/03/26 11:03:50;;;;;;;14.05;8.05;;;;;;;18.07;33.62;96469.78;4999613;28;20034;-81
2021/03/26 11:06:41;;;;;;;11.65;8.48;;;;;;;18.99;31.79;96460.28;5007758;28;20034;-81
2021/03/26 11:09:19;;;;;;;13.50;7.55;;;;;;;20.22;31.35;96455.81;4985606;28;20067;-82
2021/03/26 11:12:03;;;;;;;13.70;7.32;;;;;;;19.77;30.65;96449.66;4993841;28;20064;-81
2021/03/26 11:15:06;;;;;;;11.70;8.30;;;;;;;20.36;31.41;96451.19;4988043;28;20030;-81
2021/03/26 11:17:49;;;;;;;11.65;6.70;;;;;;;20.37;30.61;96450.16;5003891;28;20037;-81
2021/03/26 11:20:27;;;;;;;11.93;6.85;;;;;;;21.71;29.11;96434.56;5015588;28;20131;-81
2021/03/26 11:23:16;;;;;;;11.15;7.70;;;;;;;20.01;30.46;96437.41;4983700;28;20546;-80
2021/03/26 11:25:46;;;;;;;13.02;7.82;;;;;;;19.47;32.06;96449.31;4987354;28;20038;-81
2021/03/26 11:28:25;;;;;;;12.18;7.93;;;;;;;18.97;32.63;96441.81;4972037;28;20061;-81
2021/03/26 11:31:27;;;;;;;10.55;7.03;;;;;;;19.29;31.89;96432.13;5015133;28;20042;-81
2021/03/26 11:34:07;;;;;;;11.50;6.57;;;;;;;20.33;27.58;96430.25;4991476;28;20034;-82
2021/03/26 11:36:58;;;;;;;12.15;6.85;;;;;;;20.42;28.14;96423.63;4998928;28;20062;-80
2021/03/26 11:39:57;;;;;;;10.70;7.05;;;;;;;21.39;27.93;96425.88;5020816;28;20102;-79
2021/03/26 11:43:09;;;;;;;12.23;7.50;;;;;;;21.61;27.75;96428.94;5046966;28;20043;-82
2021/03/26 11:46:16;;;;;;;10.25;6.72;;;;;;;21.29;27.77;96414.84;4998251;28;20120;-82
2021/03/26 11:49:06;;;;;;;11.27;7.47;;;;;;;21.10;27.43;96408.69;5007972;28;20064;-82
2021/03/26 11:51:45;;;;;;;9.70;6.43;;;;;;;22.37;25.10;96406.13;4997639;28;20026;-82
2021/03/26 11:54:41;;;;;;;11.55;6.43;;;;;;;20.74;28.29;96412.09;5010719;28;20042;-80
2021/03/26 11:57:37;;;;;;;13.05;7.60;;;;;;;20.96;28.36;96405.31;4994457;28;20030;-79
2021/03/26 12:00:12;;;;;;;13.48;7.38;;;;;;;19.82;29.34;96403.63;4998469;28;20049;-80
2021/03/26 12:03:19;;;;;;;14.60;7.53;;;;;;;19.47;30.76;96401.31;5095296;27;20022;-80
2021/03/26 12:06:29;;;;;;;12.75;7.50;;;;;;;18.40;32.22;96399.81;5006255;28;20346;-80
2021/03/26 12:09:25;;;;;;;11.93;7.45;;;;;;;18.64;31.43;96399.19;5008392;28;20081;-80
2021/03/26 12:12:10;;;;;;;12.98;7.78;;;;;;;18.19;32.11;96390.16;4991394;28;20039;-80
2021/03/26 12:14:47;;;;;;;16.30;7.45;;;;;;;18.76;31.76;96389.59;4982201;28;20038;-79
2021/03/26 12:17:34;;;;;;;10.10;6.30;;;;;;;20.79;29.34;96378.34;4987984;28;20033;-80
2021/03/26 12:20:08;;;;;;;10.77;7.22;;;;;;;20.02;29.75;96377.69;5001478;28;20103;-78
2021/03/26 12:22:45;;;;;;;12.70;7.35;;;;;;;18.88;31.16;96378.28;4990456;28;20022;-81
2021/03/26 12:25:31;;;;;;;13.70;8.23;;;;;;;17.89;33.94;96374.56;4989986;28;20646;-81
2021/03/26 12:28:04;;;;;;;12.60;8.02;;;;;;;17.52;33.76;96381.19;4988340;28;20038;-83
2021/03/26 12:30:43;;;;;;;26.42;22.67;;;;;;;17.66;33.59;96374.88;4994288;28;20034;-81
2021/03/26 12:33:33;;;;;;;12.13;8.15;;;;;;;18.09;32.92;96367.44;4991324;28;20046;-82
2021/03/26 12:36:23;;;;;;;13.50;8.32;;;;;;;18.14;31.98;96362.34;5087122;28;20259;-82
2021/03/26 12:39:09;;;;;;;11.32;8.07;;;;;;;19.54;30.73;96354.09;4991186;28;20109;-80
2021/03/26 12:41:47;;;;;;;13.18;7.60;;;;;;;20.68;29.68;96344.31;4972216;28;20115;-83
2021/03/26 12:44:31;;;;;;;12.50;8.93;;;;;;;20.93;28.22;96333.59;4984838;28;20044;-81